Flight Track Log - Related Links

Times and Time Zones

All times are in EST time to prevent confusion due to time zone crossing. See the EJA922 flight status page for this flight to view local times or setup timezone preferences in your user account.

Time Position Orientation Groundspeed Altitude Reporting Facility
EST Latitude Longitude Course Direction KTS km/h feet Rate Location/Type
Mon 01:17:58 37.6667 -122.3833 36° Northeast 212 393 4,200  Level Northern Cal TRACON
Mon 01:18:58 37.7167 -122.3667 15° North 222 410 8,400 3,400 Climbing Northern Cal TRACON
Mon 01:19:58 37.7833 -122.3000 38° Northeast 253 468 11,000 1,300 Climbing Northern Cal TRACON
Mon 01:20:58 37.8500 -122.2333 38° Northeast 301 557 11,000  Level Northern Cal TRACON
Mon 01:21:58 37.9167 -122.1667 38° Northeast 301 557 11,000  Level Northern Cal TRACON
Mon 01:22:58 37.9667 -122.1167 38° Northeast 283 525 11,000  Level Northern Cal TRACON
Mon 01:23:00 37.9479 -122.1385 36° Northeast  Level Estimated
Mon 01:23:58 38.0333 -122.0500 38° Northeast 285 528 11,000  Level Northern Cal TRACON
Mon 01:24:58 38.1000 -122.0000 31° Northeast 291 539 11,000 -500 Level Northern Cal TRACON
Mon 01:25:58 38.1500 -121.9333 46° Northeast 265 491 10,000 -1,250 Descending Northern Cal TRACON
Mon 01:26:58 38.2167 -121.8833 31° Northeast 245 454 8,500 -1,450 Descending Northern Cal TRACON
Mon 01:27:58 38.2667 -121.8333 38° Northeast 233 431 7,100 -1,450 Descending Northern Cal TRACON
Mon 01:28:58 38.3167 -121.7833 38° Northeast 223 414 5,600 -1,050 Descending Northern Cal TRACON
Mon 01:29:58 38.3667 -121.7333 38° Northeast 235 435 5,000 -600 Descending Northern Cal TRACON
Mon 01:30:58 38.4167 -121.6833 38° Northeast 227 420 4,400 -950 Descending Northern Cal TRACON
Mon 01:31:58 38.4667 -121.6500 28° Northeast 230 426 3,100 -700 Descending Northern Cal TRACON
Mon 01:32:58 38.5167 -121.6000 38° Northeast 215 398 3,000 -450 Descending Northern Cal TRACON
Mon 01:33:58 38.5667 -121.6000 360° North 173 320 2,200 -700 Descending Northern Cal TRACON
Mon 01:34:58 38.6167 -121.6000 360° North 115 212 1,600 -600 Descending Northern Cal TRACON
Mon 01:35:58 38.6333 -121.6000 360° North 93 172 1,000 -550 Descending Northern Cal TRACON
Mon 01:36:58 38.6667 -121.6000 360° North 100 185 500 1,400 Descending Northern Cal TRACON
Mon 01:37:58 38.6833 -121.6000 360° North 98 182 3,800 3,300 Climbing Northern Cal TRACON

Login

Don't have an account? Register now (free) for customized features, flight alerts, and more!